Time;durP1;ratioP1;P1;durP2;ratioP2;P2;SDS_P1;SDS_P2;PMS_P1;PMS_P2;Temp;Humidity;BMP_temperature;BMP_pressure;BME280_temperature;BME280_humidity;BME280_pressure;Samples;Min_cycle;Max_cycle;Signal;HPM_P1;HPM_P2
2022/08/09 00:00:11;;;;;;;2.40;1.30;;;;;;;16.94;68.72;99381.09;5031547;28;20110;-62
2022/08/09 00:03:07;;;;;;;5.40;1.50;;;;;;;16.90;68.87;99377.00;5031337;28;20405;-61
2022/08/09 00:05:52;;;;;;;2.83;1.42;;;;;;;16.86;69.30;99379.91;5032144;28;20052;-62
2022/08/09 00:08:40;;;;;;;2.47;1.30;;;;;;;16.87;69.37;99378.94;5031876;28;20053;-63
2022/08/09 00:11:25;;;;;;;4.60;1.55;;;;;;;16.75;69.79;99372.91;5032230;28;20076;-62
2022/08/09 00:14:10;;;;;;;2.95;1.48;;;;;;;16.70;69.45;99369.81;5031046;28;20041;-61
2022/08/09 00:16:55;;;;;;;2.78;1.30;;;;;;;16.71;69.73;99379.41;5038886;28;20063;-62
2022/08/09 00:19:40;;;;;;;5.20;1.50;;;;;;;16.70;68.87;99363.66;5031957;28;20488;-61
2022/08/09 00:22:24;;;;;;;3.13;1.45;;;;;;;16.81;69.08;99366.25;5043762;28;20091;-62
2022/08/09 00:25:09;;;;;;;3.03;1.55;;;;;;;16.79;68.31;99359.41;5030606;28;20064;-62
2022/08/09 00:27:54;;;;;;;2.53;0.98;;;;;;;16.80;68.41;99355.78;5031746;28;20392;-62
2022/08/09 00:30:39;;;;;;;3.55;1.40;;;;;;;16.67;68.37;99358.63;5016670;28;20476;-61
2022/08/09 00:33:23;;;;;;;4.95;1.30;;;;;;;16.61;68.37;99355.53;5030785;28;20033;-61
2022/08/09 00:36:08;;;;;;;2.88;1.40;;;;;;;16.60;69.21;99356.53;5031470;28;20127;-61
2022/08/09 00:38:53;;;;;;;1.85;1.30;;;;;;;16.58;68.92;99360.28;5031444;28;20115;-62
2022/08/09 00:41:38;;;;;;;3.08;1.25;;;;;;;16.56;69.10;99363.06;5033712;28;20057;-62
2022/08/09 00:44:23;;;;;;;1.77;1.30;;;;;;;16.53;69.27;99365.13;5039907;28;20037;-62
2022/08/09 00:47:07;;;;;;;2.47;1.20;;;;;;;16.51;69.09;99362.59;5064193;28;20096;-61
2022/08/09 00:49:52;;;;;;;4.30;2.13;;;;;;;16.43;68.94;99363.25;5046237;28;20419;-62
2022/08/09 00:52:38;;;;;;;3.20;1.30;;;;;;;16.34;69.29;99367.50;5030786;28;20049;-61
2022/08/09 00:55:22;;;;;;;4.18;1.35;;;;;;;16.34;69.12;99359.56;5056112;28;20083;-60
2022/08/09 00:58:07;;;;;;;7.70;1.30;;;;;;;16.33;68.52;99357.88;5031267;28;20431;-60
2022/08/09 01:00:54;;;;;;;2.30;1.27;;;;;;;16.33;68.09;99367.63;5031314;28;20045;-61
2022/08/09 01:04:11;;;;;;;1.30;1.00;;;;;;;16.33;67.70;99360.53;5042850;28;20037;-62
2022/08/09 01:06:59;;;;;;;5.13;1.17;;;;;;;16.25;67.38;99361.16;5035147;28;20045;-62
2022/08/09 01:09:58;;;;;;;2.13;1.17;;;;;;;16.24;67.17;99367.41;5039785;28;20100;-63
2022/08/09 01:13:02;;;;;;;3.85;1.25;;;;;;;16.23;67.41;99368.38;5030087;28;20445;-61
2022/08/09 01:15:51;;;;;;;4.25;1.13;;;;;;;16.18;67.39;99370.56;5031163;28;20496;-61
2022/08/09 01:18:41;;;;;;;2.88;1.13;;;;;;;16.11;66.98;99364.94;5066476;28;20385;-61
2022/08/09 01:22:06;;;;;;;6.00;1.38;;;;;;;16.06;67.37;99368.94;5046784;28;20068;-62
2022/08/09 01:25:15;;;;;;;2.58;1.38;;;;;;;16.07;67.05;99360.03;5049282;28;20096;-61
2022/08/09 01:28:01;;;;;;;2.53;1.33;;;;;;;16.01;67.51;99361.41;5039580;28;20065;-61
2022/08/09 01:30:46;;;;;;;4.60;1.40;;;;;;;16.04;67.18;99368.22;5042300;28;20044;-61
2022/08/09 01:33:37;;;;;;;1.98;1.10;;;;;;;15.90;67.83;99364.88;5035047;28;20037;-62
2022/08/09 01:36:25;;;;;;;3.50;1.17;;;;;;;15.86;68.01;99361.63;5024547;28;20033;-61
2022/08/09 01:39:12;;;;;;;3.47;1.88;;;;;;;15.84;68.17;99357.44;5034228;28;20033;-62
2022/08/09 01:41:58;;;;;;;2.72;1.48;;;;;;;15.74;68.18;99357.34;5044088;28;20044;-62
2022/08/09 01:44:45;;;;;;;3.63;1.42;;;;;;;15.75;67.88;99357.22;5062353;28;20053;-62
2022/08/09 01:47:31;;;;;;;2.63;1.33;;;;;;;15.77;67.52;99351.81;5071033;28;20060;-62
2022/08/09 01:50:17;;;;;;;3.85;1.35;;;;;;;15.75;67.57;99356.38;5033961;28;20037;-61
2022/08/09 01:53:03;;;;;;;3.03;1.20;;;;;;;15.71;67.57;99358.47;5047824;28;20033;-61
2022/08/09 01:55:52;;;;;;;3.33;1.17;;;;;;;15.72;67.41;99354.00;5034719;28;20045;-61
2022/08/09 01:58:39;;;;;;;4.70;1.20;;;;;;;15.72;67.93;99354.00;5034751;28;20046;-61
2022/08/09 02:01:26;;;;;;;1.88;1.10;;;;;;;15.59;67.62;99357.63;5041272;28;20057;-62
2022/08/09 02:04:12;;;;;;;3.28;1.10;;;;;;;15.60;67.79;99354.03;5052610;28;20041;-62
2022/08/09 02:07:14;;;;;;;4.78;1.42;;;;;;;15.60;67.41;99354.03;5054079;28;20036;-61
2022/08/09 02:10:05;;;;;;;2.78;1.00;;;;;;;15.50;67.56;99356.56;5034097;28;20115;-62
2022/08/09 02:12:54;;;;;;;2.40;1.10;;;;;;;15.52;67.34;99349.38;5050926;28;20042;-61
2022/08/09 02:15:44;;;;;;;2.22;1.08;;;;;;;15.51;66.88;99352.13;5034339;28;20109;-61
2022/08/09 02:18:31;;;;;;;3.85;1.00;;;;;;;15.46;67.02;99349.00;5041858;28;20036;-61
2022/08/09 02:21:19;;;;;;;3.92;1.00;;;;;;;15.45;66.70;99349.97;5034183;28;20033;-61
2022/08/09 02:24:13;;;;;;;1.83;1.00;;;;;;;15.38;66.79;99345.19;5034100;28;20461;-61
2022/08/09 02:27:02;;;;;;;5.03;0.82;;;;;;;15.40;67.00;99353.00;5036882;28;20055;-61
2022/08/09 02:29:50;;;;;;;4.63;1.00;;;;;;;15.39;67.18;99341.59;5038933;28;20109;-61
2022/08/09 02:32:40;;;;;;;3.35;1.08;;;;;;;15.46;66.48;99349.84;5043396;28;20461;-61
2022/08/09 02:35:27;;;;;;;2.47;1.15;;;;;;;15.35;66.88;99352.50;5041106;28;20063;-62
2022/08/09 02:38:14;;;;;;;1.98;1.10;;;;;;;15.34;67.14;99366.69;5052968;28;20067;-62
2022/08/09 02:41:09;;;;;;;1.73;0.90;;;;;;;15.36;67.17;99357.66;5034555;28;20131;-62
2022/08/09 02:43:59;;;;;;;1.80;0.93;;;;;;;15.57;67.06;99362.19;5046326;28;20436;-62
2022/08/09 02:46:48;;;;;;;1.70;0.90;;;;;;;15.59;66.98;99364.72;5046720;28;20384;-62
2022/08/09 02:49:38;;;;;;;2.78;1.13;;;;;;;15.42;69.42;99369.56;5032922;28;20041;-62
2022/08/09 02:52:28;;;;;;;1.83;0.93;;;;;;;15.12;73.46;99371.84;5046277;28;20042;-62
2022/08/09 02:55:15;;;;;;;1.73;0.88;;;;;;;15.10;74.32;99368.47;5034069;28;20044;-61
2022/08/09 02:58:01;;;;;;;1.60;0.80;;;;;;;15.12;74.36;99363.09;5060301;28;20045;-62
2022/08/09 03:00:48;;;;;;;1.63;1.10;;;;;;;14.99;76.40;99368.47;5032983;28;20072;-62
2022/08/09 03:03:35;;;;;;;1.40;0.98;;;;;;;14.89;76.62;99366.56;5060326;28;20073;-61
2022/08/09 03:06:22;;;;;;;2.65;0.98;;;;;;;14.92;78.19;99362.00;5033196;28;20362;-61
2022/08/09 03:09:12;;;;;;;1.20;0.70;;;;;;;14.97;76.31;99365.13;5033273;28;20468;-62
2022/08/09 03:11:58;;;;;;;3.47;0.90;;;;;;;14.93;76.20;99353.97;5051420;28;20036;-61
2022/08/09 03:14:44;;;;;;;2.65;1.30;;;;;;;14.76;76.46;99363.16;5033242;28;20092;-61
2022/08/09 03:17:31;;;;;;;2.00;1.30;;;;;;;14.74;77.33;99358.00;5032989;28;20048;-62
2022/08/09 03:20:17;;;;;;;2.63;1.30;;;;;;;14.70;77.67;99353.06;5032997;28;20042;-62
2022/08/09 03:23:02;;;;;;;2.03;1.40;;;;;;;14.68;76.18;99358.47;5046110;28;20051;-62
2022/08/09 03:25:48;;;;;;;4.05;1.77;;;;;;;14.39;78.53;99364.16;5046055;28;20038;-61
2022/08/09 03:28:35;;;;;;;2.08;1.05;;;;;;;14.27;78.90;99361.50;5045738;28;20225;-61
2022/08/09 03:31:21;;;;;;;1.33;0.90;;;;;;;14.35;79.15;99355.63;5033012;28;20069;-60
2022/08/09 03:34:06;;;;;;;1.67;1.00;;;;;;;14.31;78.73;99362.09;5044962;28;20088;-61
2022/08/09 03:36:52;;;;;;;1.52;1.10;;;;;;;14.23;79.45;99362.66;5032878;28;20112;-60
2022/08/09 03:39:37;;;;;;;1.88;1.00;;;;;;;14.49;77.87;99362.50;5031859;28;20037;-60
2022/08/09 03:42:22;;;;;;;1.70;0.70;;;;;;;14.63;76.81;99360.59;5059461;28;20033;-60
2022/08/09 03:45:07;;;;;;;1.42;0.93;;;;;;;14.61;77.59;99355.47;5032446;28;20115;-62
2022/08/09 03:47:52;;;;;;;2.05;1.00;;;;;;;14.33;78.45;99351.44;5043890;28;20049;-62
2022/08/09 03:50:38;;;;;;;1.73;0.90;;;;;;;14.58;77.59;99363.59;5032559;28;20037;-62
2022/08/09 03:53:26;;;;;;;3.17;1.00;;;;;;;14.58;76.81;99368.88;5071592;28;20461;-61
2022/08/09 03:56:11;;;;;;;1.52;1.00;;;;;;;14.25;79.21;99360.75;5031004;28;20566;-64
2022/08/09 03:58:56;;;;;;;2.45;1.10;;;;;;;14.28;78.60;99355.25;5041828;28;20440;-62
2022/08/09 04:01:42;;;;;;;1.48;0.90;;;;;;;14.28;77.98;99357.06;5032975;28;20071;-62
2022/08/09 04:04:28;;;;;;;1.15;0.90;;;;;;;14.48;77.41;99362.59;5032517;28;20033;-61
2022/08/09 04:07:13;;;;;;;1.33;0.93;;;;;;;14.35;77.66;99363.53;5040024;28;20103;-61
2022/08/09 04:09:58;;;;;;;1.27;0.93;;;;;;;14.36;78.23;99359.13;5033936;28;20033;-61
2022/08/09 04:12:51;;;;;;;2.47;1.10;;;;;;;14.45;77.83;99368.13;5051895;28;20125;-61
2022/08/09 04:15:40;;;;;;;1.98;1.00;;;;;;;14.32;77.23;99355.88;5052082;28;20041;-61
2022/08/09 04:18:25;;;;;;;4.45;2.17;;;;;;;14.50;77.57;99368.63;5018298;28;20045;-62
2022/08/09 04:21:14;;;;;;;4.22;1.20;;;;;;;14.57;76.54;99363.72;5017707;28;20041;-62
2022/08/09 04:24:01;;;;;;;3.70;2.10;;;;;;;14.61;77.02;99367.78;5016876;28;20488;-62
2022/08/09 04:26:46;;;;;;;1.63;1.10;;;;;;;14.59;75.68;99365.28;5047632;28;20045;-62
2022/08/09 04:29:31;;;;;;;3.25;1.20;;;;;;;14.53;75.93;99373.66;5031817;28;20392;-62
2022/08/09 04:32:17;;;;;;;3.58;1.30;;;;;;;14.65;76.01;99369.25;5017268;28;20433;-62
2022/08/09 04:35:09;;;;;;;1.65;0.93;;;;;;;14.73;75.57;99376.56;5020045;28;20052;-62
2022/08/09 04:37:55;;;;;;;1.20;0.90;;;;;;;15.04;73.60;99371.59;5048579;28;20048;-63
2022/08/09 04:40:49;;;;;;;1.55;0.90;;;;;;;15.28;73.05;99381.19;5031490;28;20389;-62
2022/08/09 04:43:36;;;;;;;3.45;1.52;;;;;;;15.02;73.66;99371.72;5030256;28;20096;-60
2022/08/09 04:46:20;;;;;;;1.95;1.05;;;;;;;14.80;74.89;99374.34;5031593;28;20057;-61
2022/08/09 04:49:06;;;;;;;2.67;1.08;;;;;;;15.01;74.03;99377.94;5033185;28;20044;-60
2022/08/09 04:51:50;;;;;;;3.22;1.13;;;;;;;15.25;73.19;99378.78;5037213;28;20033;-61
2022/08/09 04:54:35;;;;;;;1.30;1.00;;;;;;;15.46;71.73;99378.91;5044063;28;20037;-63
2022/08/09 04:57:20;;;;;;;0.88;0.80;;;;;;;15.32;72.56;99379.16;5031715;28;20037;-61
2022/08/09 05:00:06;;;;;;;2.35;0.93;;;;;;;15.29;72.77;99374.13;5029408;28;20044;-61
2022/08/09 05:02:51;;;;;;;2.58;1.08;;;;;;;15.50;71.57;99380.31;5031287;28;20103;-60
2022/08/09 05:05:37;;;;;;;2.30;1.10;;;;;;;15.57;71.44;99379.84;5030477;28;20042;-60
2022/08/09 05:08:21;;;;;;;2.60;1.15;;;;;;;15.57;71.39;99379.84;5031200;28;20048;-60
2022/08/09 05:11:08;;;;;;;1.48;0.77;;;;;;;15.66;70.94;99387.03;5045662;28;20461;-61
2022/08/09 05:13:52;;;;;;;2.35;1.00;;;;;;;15.79;71.36;99388.69;5031888;28;20041;-61
2022/08/09 05:16:37;;;;;;;3.20;1.00;;;;;;;15.94;70.17;99387.44;5058170;28;20041;-60
2022/08/09 05:19:21;;;;;;;1.85;1.15;;;;;;;16.06;69.73;99395.38;5031322;28;20029;-61
2022/08/09 05:22:06;;;;;;;2.25;1.02;;;;;;;16.18;69.50;99393.50;5031361;28;20128;-61
2022/08/09 05:24:51;;;;;;;1.98;0.80;;;;;;;16.36;68.47;99394.66;5030529;28;20048;-61
2022/08/09 05:27:35;;;;;;;0.95;0.75;;;;;;;16.71;67.16;99391.81;5030851;28;20061;-61
2022/08/09 05:30:20;;;;;;;6.68;1.33;;;;;;;16.69;66.95;99391.94;5031391;28;20107;-61
2022/08/09 05:33:06;;;;;;;2.88;1.17;;;;;;;16.48;68.04;99391.94;5034023;28;20432;-61
2022/08/09 05:35:50;;;;;;;1.08;0.70;;;;;;;16.56;67.07;99396.59;5030959;28;20034;-61
2022/08/09 05:38:35;;;;;;;2.63;1.20;;;;;;;16.52;67.27;99390.72;5057941;28;20033;-61
2022/08/09 05:41:20;;;;;;;2.97;1.50;;;;;;;16.11;67.02;99386.09;5033164;28;20396;-61
2022/08/09 05:44:05;;;;;;;3.15;1.30;;;;;;;16.01;66.40;99386.00;5030823;28;20116;-61
2022/08/09 05:46:49;;;;;;;1.85;1.00;;;;;;;16.16;67.55;99385.72;5029914;28;20049;-61
2022/08/09 05:49:34;;;;;;;1.40;1.05;;;;;;;16.79;65.94;99386.72;5038185;28;20048;-61
2022/08/09 05:52:20;;;;;;;3.97;1.52;;;;;;;16.57;64.13;99391.16;5039646;28;20060;-61
2022/08/09 05:55:06;;;;;;;2.15;1.20;;;;;;;16.87;64.51;99402.75;5035434;28;20057;-62
2022/08/09 05:57:51;;;;;;;1.48;0.90;;;;;;;17.17;64.22;99402.13;5044440;28;20108;-62
2022/08/09 06:00:36;;;;;;;2.42;1.63;;;;;;;17.16;63.42;99395.13;5032518;28;20384;-61
2022/08/09 06:03:21;;;;;;;2.58;1.00;;;;;;;17.36;62.16;99399.53;5030844;28;20045;-62
2022/08/09 06:06:06;;;;;;;3.75;1.23;;;;;;;16.90;62.99;99396.38;5030679;28;20041;-61
2022/08/09 06:08:51;;;;;;;4.30;1.60;;;;;;;16.96;63.10;99397.66;5029876;28;20065;-61
2022/08/09 06:11:35;;;;;;;3.72;1.58;;;;;;;17.08;62.35;99394.00;5041163;28;20042;-61
2022/08/09 06:14:20;;;;;;;3.30;1.42;;;;;;;17.22;62.15;99395.44;5047132;28;20098;-61
2022/08/09 06:17:04;;;;;;;4.72;1.17;;;;;;;17.60;61.64;99397.50;5033524;28;20045;-61
2022/08/09 06:19:49;;;;;;;4.55;1.25;;;;;;;17.38;62.11;99398.56;5019374;28;20048;-61
2022/08/09 06:22:34;;;;;;;6.90;1.70;;;;;;;17.34;62.84;99398.00;5033989;28;20053;-62
2022/08/09 06:25:19;;;;;;;5.32;1.77;;;;;;;17.21;63.21;99398.22;5049286;28;20048;-61
2022/08/09 06:28:04;;;;;;;3.92;1.98;;;;;;;17.72;61.97;99396.41;5040803;28;20057;-61
2022/08/09 06:30:49;;;;;;;4.80;1.48;;;;;;;18.09;61.34;99407.34;5041907;28;20038;-62
2022/08/09 06:33:34;;;;;;;3.65;1.80;;;;;;;18.35;60.39;99406.81;5034029;28;20091;-62
2022/08/09 06:36:18;;;;;;;3.58;2.00;;;;;;;18.44;60.19;99407.81;5033011;28;20044;-61
2022/08/09 06:39:03;;;;;;;2.53;1.42;;;;;;;18.44;60.48;99399.84;5033193;28;20045;-62
2022/08/09 06:41:48;;;;;;;2.53;1.60;;;;;;;17.58;62.68;99405.59;5044065;28;20041;-61
2022/08/09 06:44:34;;;;;;;3.35;1.80;;;;;;;18.26;60.95;99405.88;5031779;28;20056;-62
2022/08/09 06:47:18;;;;;;;4.32;2.45;;;;;;;18.44;60.08;99411.28;5033600;28;20083;-61
2022/08/09 06:50:05;;;;;;;2.20;1.45;;;;;;;18.74;59.57;99416.56;5023457;28;20072;-61
2022/08/09 06:52:50;;;;;;;3.10;1.27;;;;;;;19.70;56.89;99412.03;5033883;28;20041;-60
2022/08/09 06:55:35;;;;;;;5.07;1.50;;;;;;;19.90;55.76;99424.34;5060765;28;20124;-61
2022/08/09 06:58:19;;;;;;;7.25;1.80;;;;;;;20.58;54.19;99418.69;5033758;28;20045;-61
2022/08/09 07:01:04;;;;;;;3.38;1.38;;;;;;;21.18;52.47;99419.75;5032847;28;20538;-61
2022/08/09 07:03:49;;;;;;;4.40;1.80;;;;;;;21.03;52.92;99425.69;5033449;28;20484;-60
2022/08/09 07:06:34;;;;;;;4.65;2.00;;;;;;;20.32;55.08;99428.28;5041368;28;20079;-63
2022/08/09 07:09:20;;;;;;;4.72;1.77;;;;;;;20.11;55.31;99426.75;5049370;28;20045;-61
2022/08/09 07:12:05;;;;;;;4.55;2.10;;;;;;;20.28;55.42;99424.25;5052916;28;20064;-62
2022/08/09 07:14:50;;;;;;;5.82;2.28;;;;;;;20.28;55.52;99426.91;5023626;28;20048;-62
2022/08/09 07:17:34;;;;;;;2.95;1.63;;;;;;;20.02;56.93;99430.31;5039675;28;20075;-63
2022/08/09 07:20:19;;;;;;;3.97;2.10;;;;;;;20.92;53.91;99423.28;5044424;28;20041;-62
2022/08/09 07:23:03;;;;;;;7.57;2.00;;;;;;;20.66;54.41;99416.09;5031596;28;20048;-62
2022/08/09 07:25:49;;;;;;;4.22;1.83;;;;;;;20.59;54.88;99418.53;5033378;28;20037;-62
2022/08/09 07:28:33;;;;;;;3.42;1.83;;;;;;;20.33;55.62;99429.13;5033322;28;20068;-62
2022/08/09 07:31:18;;;;;;;7.32;2.10;;;;;;;21.11;53.16;99424.88;5041558;28;20392;-63
2022/08/09 07:34:02;;;;;;;3.60;1.58;;;;;;;22.00;51.32;99429.06;5039280;28;20037;-62
2022/08/09 07:36:48;;;;;;;3.72;1.58;;;;;;;21.60;52.54;99427.91;5051841;28;20436;-62
2022/08/09 07:39:33;;;;;;;5.00;1.80;;;;;;;21.61;51.83;99432.28;5048876;28;20033;-61
2022/08/09 07:42:17;;;;;;;3.05;1.85;;;;;;;21.53;52.54;99433.91;5032426;28;20037;-61
2022/08/09 07:45:05;;;;;;;3.15;1.38;;;;;;;21.86;52.11;99438.53;5046198;28;20032;-62
2022/08/09 07:47:50;;;;;;;3.75;1.85;;;;;;;21.69;52.24;99437.59;5045049;28;20053;-61
2022/08/09 07:50:39;;;;;;;6.65;1.85;;;;;;;22.12;51.69;99436.75;5032414;28;20078;-62
2022/08/09 07:53:24;;;;;;;5.80;1.65;;;;;;;22.40;51.04;99429.28;5031675;28;20111;-62
2022/08/09 07:56:09;;;;;;;4.28;1.70;;;;;;;23.16;49.06;99427.34;5034332;28;20056;-63
2022/08/09 07:58:54;;;;;;;2.28;1.35;;;;;;;23.97;47.47;99433.53;5038865;28;20072;-62
2022/08/09 08:01:39;;;;;;;3.33;2.20;;;;;;;22.22;50.77;99436.59;5039301;28;20038;-62
2022/08/09 08:04:24;;;;;;;8.50;2.42;;;;;;;22.22;51.55;99442.78;5032393;28;20048;-61
2022/08/09 08:07:11;;;;;;;5.70;1.90;;;;;;;22.61;50.45;99435.97;5036514;28;20464;-61
2022/08/09 08:09:56;;;;;;;3.17;1.80;;;;;;;22.95;50.15;99428.75;5039125;28;20049;-62
2022/08/09 08:12:42;;;;;;;4.68;1.80;;;;;;;23.77;48.59;99436.66;5035862;28;20044;-62
2022/08/09 08:15:26;;;;;;;3.15;1.30;;;;;;;24.73;45.84;99426.63;5032078;28;20053;-62
2022/08/09 08:18:12;;;;;;;4.28;1.50;;;;;;;25.29;44.05;99427.22;5032255;28;20033;-61
2022/08/09 08:20:56;;;;;;;5.05;1.67;;;;;;;25.74;43.22;99434.41;5033229;28;20041;-61
2022/08/09 08:23:41;;;;;;;2.67;1.60;;;;;;;25.52;43.29;99426.28;5025895;28;20095;-62
2022/08/09 08:26:26;;;;;;;6.03;1.60;;;;;;;26.35;42.32;99433.19;5067452;28;20029;-66
2022/08/09 08:29:11;;;;;;;2.53;1.60;;;;;;;26.09;42.92;99426.53;5046769;28;20389;-62
2022/08/09 08:31:56;;;;;;;1.98;1.45;;;;;;;26.71;40.93;99427.91;5031342;28;20057;-62
2022/08/09 08:34:41;;;;;;;3.22;1.60;;;;;;;27.11;40.38;99424.69;5030046;28;20029;-62
2022/08/09 08:37:26;;;;;;;2.25;1.20;;;;;;;26.54;41.02;99429.00;5037608;28;20082;-62
2022/08/09 08:40:13;;;;;;;4.35;1.50;;;;;;;26.68;40.65;99424.59;5035959;28;20473;-62
2022/08/09 08:42:59;;;;;;;2.95;1.67;;;;;;;25.63;43.25;99427.66;5041442;28;20045;-63
2022/08/09 08:45:53;;;;;;;4.53;1.33;;;;;;;26.24;42.52;99434.53;5039760;28;20068;-62
2022/08/09 08:48:41;;;;;;;3.08;1.30;;;;;;;26.97;41.42;99423.72;5058116;28;20103;-61
2022/08/09 08:51:26;;;;;;;6.25;1.80;;;;;;;27.16;40.64;99436.50;5031479;28;20392;-61
2022/08/09 08:54:13;;;;;;;3.63;1.42;;;;;;;26.83;40.91;99434.41;5031556;28;20388;-62
2022/08/09 08:56:57;;;;;;;2.70;1.60;;;;;;;27.45;39.91;99436.44;5044797;28;20053;-62
2022/08/09 08:59:42;;;;;;;5.03;1.50;;;;;;;26.51;41.88;99432.09;5058815;28;20053;-62
2022/08/09 09:02:28;;;;;;;5.40;1.30;;;;;;;27.22;40.49;99423.28;5031717;28;20044;-62
2022/08/09 09:05:22;;;;;;;3.08;1.60;;;;;;;27.58;39.77;99407.91;5031900;28;20087;-62
2022/08/09 09:08:09;;;;;;;3.13;1.42;;;;;;;27.14;40.29;99422.41;5036265;28;20048;-62
2022/08/09 09:10:55;;;;;;;2.97;1.63;;;;;;;27.08;41.80;99419.72;5043915;28;20472;-62
2022/08/09 09:13:42;;;;;;;2.80;1.20;;;;;;;27.89;40.14;99433.50;5041524;28;20037;-62
2022/08/09 09:16:29;;;;;;;4.13;1.45;;;;;;;28.96;37.21;99426.53;5043780;28;20037;-62
2022/08/09 09:19:13;;;;;;;3.05;1.30;;;;;;;27.30;40.42;99428.50;5030922;28;20033;-62
2022/08/09 09:22:02;;;;;;;2.58;1.73;;;;;;;26.92;40.90;99430.53;5031348;28;20037;-62
2022/08/09 09:24:52;;;;;;;2.63;1.40;;;;;;;27.05;41.00;99437.88;5039846;28;20045;-63
2022/08/09 09:27:36;;;;;;;5.63;1.73;;;;;;;28.75;38.27;99427.56;5032910;28;20045;-62
2022/08/09 09:30:21;;;;;;;2.15;1.40;;;;;;;28.40;38.29;99428.59;5034426;28;20468;-62
2022/08/09 09:33:09;;;;;;;3.50;1.70;;;;;;;28.80;37.45;99427.78;5038914;28;20459;-62
2022/08/09 09:36:01;;;;;;;4.57;1.38;;;;;;;28.99;38.10;99430.66;5033444;28;20096;-62
2022/08/09 09:38:55;;;;;;;2.30;1.38;;;;;;;28.89;37.42;99431.91;5035171;28;20037;-62
2022/08/09 09:41:40;;;;;;;2.40;1.40;;;;;;;29.59;35.66;99418.06;5065288;28;20041;-63
2022/08/09 09:44:28;;;;;;;3.75;1.40;;;;;;;29.33;38.09;99423.28;5039348;28;20435;-63
2022/08/09 09:47:16;;;;;;;4.75;1.58;;;;;;;29.47;35.76;99434.88;5040786;28;20033;-62
2022/08/09 09:50:01;;;;;;;3.20;1.30;;;;;;;29.17;37.07;99432.69;5037409;28;20094;-63
2022/08/09 09:52:49;;;;;;;4.70;1.55;;;;;;;29.07;36.75;99433.13;5061885;28;20045;-62
2022/08/09 09:55:49;;;;;;;2.17;1.60;;;;;;;29.51;36.44;99429.84;5035087;28;20121;-63
2022/08/09 09:58:47;;;;;;;2.60;1.40;;;;;;;28.81;36.98;99426.72;5034969;28;20072;-63
2022/08/09 10:01:32;;;;;;;2.53;1.55;;;;;;;28.08;38.70;99434.56;5034893;28;20083;-62
2022/08/09 10:04:20;;;;;;;3.65;1.60;;;;;;;28.34;38.89;99430.28;5047566;28;20068;-63
2022/08/09 10:07:26;;;;;;;4.75;1.42;;;;;;;28.36;38.91;99424.69;5034914;28;20041;-65
2022/08/09 10:10:12;;;;;;;2.67;1.42;;;;;;;30.33;35.80;99425.69;5037522;28;20053;-63
2022/08/09 10:12:56;;;;;;;3.85;1.40;;;;;;;30.71;34.95;99423.09;5050483;28;20739;-63
2022/08/09 10:15:49;;;;;;;3.30;1.77;;;;;;;31.86;33.21;99418.25;5047721;28;20037;-63
2022/08/09 10:18:34;;;;;;;2.90;1.67;;;;;;;30.41;34.36;99411.09;5030182;28;20044;-63
2022/08/09 10:21:19;;;;;;;4.72;1.60;;;;;;;30.62;34.75;99414.41;5054023;28;20045;-63
2022/08/09 10:24:05;;;;;;;5.00;1.50;;;;;;;29.92;35.22;99408.09;5038352;28;20038;-63
2022/08/09 10:26:51;;;;;;;4.00;1.70;;;;;;;29.76;35.42;99396.78;5034593;28;20048;-63
2022/08/09 10:29:37;;;;;;;3.30;1.40;;;;;;;29.55;36.23;99405.97;5042274;28;20047;-64
2022/08/09 10:32:24;;;;;;;2.60;1.60;;;;;;;29.56;36.27;99403.06;5035137;28;20460;-63
2022/08/09 10:35:10;;;;;;;3.95;1.63;;;;;;;29.84;35.74;99407.31;5044273;28;20036;-64
2022/08/09 10:37:56;;;;;;;3.22;2.03;;;;;;;30.10;35.15;99413.56;5040254;28;20053;-63
2022/08/09 10:40:43;;;;;;;1.70;1.15;;;;;;;31.10;33.94;99398.56;5047194;28;20091;-63
2022/08/09 10:43:28;;;;;;;2.83;1.27;;;;;;;31.06;34.36;99402.81;5019460;28;20044;-64
2022/08/09 10:46:28;;;;;;;3.30;1.30;;;;;;;30.85;34.84;99389.50;5033911;28;20057;-64
2022/08/09 10:49:12;;;;;;;2.50;1.40;;;;;;;30.64;35.74;99397.97;5033181;28;20392;-63
2022/08/09 10:52:10;;;;;;;1.77;0.98;;;;;;;31.96;32.91;99394.16;5033735;28;20045;-64
2022/08/09 10:55:17;;;;;;;2.92;1.35;;;;;;;32.66;31.67;99388.25;5033459;28;20076;-64
2022/08/09 10:58:02;;;;;;;2.15;1.30;;;;;;;33.44;30.34;99392.59;5032490;28;20037;-63
2022/08/09 11:00:47;;;;;;;2.90;1.60;;;;;;;30.74;34.63;99377.53;5030827;28;20053;-63
2022/08/09 11:03:32;;;;;;;3.92;1.45;;;;;;;31.59;33.71;99386.97;5044894;28;20038;-63
2022/08/09 11:06:23;;;;;;;3.88;1.35;;;;;;;32.63;31.75;99377.84;5049897;28;20107;-63
2022/08/09 11:09:10;;;;;;;2.15;1.33;;;;;;;32.91;31.40;99368.16;5044794;28;20048;-63
2022/08/09 11:12:27;;;;;;;4.53;1.50;;;;;;;32.90;30.46;99386.34;5051687;28;20041;-63
2022/08/09 11:15:18;;;;;;;2.38;1.40;;;;;;;32.07;32.31;99379.00;5033733;28;20060;-63
2022/08/09 11:18:03;;;;;;;4.47;1.70;;;;;;;33.55;30.95;99377.31;5044889;28;20044;-63
2022/08/09 11:20:47;;;;;;;1.92;1.40;;;;;;;33.70;30.05;99365.94;5033356;28;20117;-63
2022/08/09 11:23:58;;;;;;;2.10;1.20;;;;;;;33.14;30.41;99361.06;5033492;28;20445;-63
2022/08/09 11:26:43;;;;;;;4.68;1.55;;;;;;;32.02;32.24;99365.34;5033015;28;20477;-64
2022/08/09 11:29:50;;;;;;;3.03;1.30;;;;;;;33.28;31.29;99367.84;5051882;28;20029;-63
2022/08/09 11:32:49;;;;;;;2.38;1.10;;;;;;;33.36;30.32;99357.69;5049752;28;20053;-64
2022/08/09 11:35:37;;;;;;;1.77;1.10;;;;;;;34.47;29.00;99360.09;5050581;28;20036;-63
2022/08/09 11:38:26;;;;;;;2.50;1.20;;;;;;;34.13;29.60;99357.38;5024135;28;20095;-62
2022/08/09 11:41:12;;;;;;;1.42;0.95;;;;;;;35.25;28.91;99363.03;5035714;28;20048;-61
2022/08/09 11:43:56;;;;;;;1.88;1.17;;;;;;;33.43;30.05;99340.19;5032676;28;20048;-61
2022/08/09 11:46:56;;;;;;;2.22;1.30;;;;;;;33.88;30.83;99351.28;5035252;28;20068;-60
2022/08/09 11:50:01;;;;;;;2.33;1.13;;;;;;;33.42;30.13;99338.53;5046038;28;20469;-61
2022/08/09 11:52:58;;;;;;;2.20;1.40;;;;;;;33.66;29.38;99346.59;5032671;28;20048;-61
2022/08/09 11:55:43;;;;;;;2.50;1.30;;;;;;;35.35;28.07;99337.81;5059742;28;20048;-61
2022/08/09 11:58:52;;;;;;;5.15;1.35;;;;;;;35.22;27.07;99344.47;5037496;28;20029;-61
2022/08/09 12:01:41;;;;;;;2.42;1.00;;;;;;;35.17;28.76;99337.06;5033158;28;20060;-62
2022/08/09 12:04:26;;;;;;;2.40;1.20;;;;;;;34.63;28.34;99344.00;5032640;28;20041;-62
2022/08/09 12:07:11;;;;;;;3.13;1.30;;;;;;;32.80;30.35;99335.44;5059322;28;20096;-62
2022/08/09 12:09:59;;;;;;;2.10;1.10;;;;;;;32.23;31.01;99342.28;5033068;28;20054;-62
2022/08/09 12:12:46;;;;;;;2.08;1.10;;;;;;;32.39;30.39;99324.47;5048874;28;20048;-62
2022/08/09 12:15:31;;;;;;;2.45;1.30;;;;;;;31.87;31.91;99342.22;5033932;28;20037;-63
2022/08/09 12:18:17;;;;;;;1.95;1.30;;;;;;;32.89;30.92;99329.59;5034138;28;20438;-63
2022/08/09 12:21:06;;;;;;;2.35;1.10;;;;;;;33.62;29.63;99331.00;5038365;28;20384;-62
2022/08/09 12:23:52;;;;;;;2.08;1.30;;;;;;;35.13;27.26;99333.19;5039305;28;20045;-62
2022/08/09 12:26:49;;;;;;;1.38;1.00;;;;;;;34.07;27.97;99331.19;5032274;28;20044;-62
2022/08/09 12:29:33;;;;;;;2.28;1.08;;;;;;;31.65;31.68;99333.78;5037011;28;20048;-63
2022/08/09 12:32:25;;;;;;;2.30;1.20;;;;;;;32.83;28.92;99325.97;5049631;28;20041;-63
2022/08/09 12:35:10;;;;;;;2.28;1.05;;;;;;;33.04;28.12;99327.22;5032118;28;20063;-64
2022/08/09 12:37:55;;;;;;;1.70;0.90;;;;;;;33.40;28.00;99318.13;5031096;28;20045;-63
2022/08/09 12:40:49;;;;;;;5.85;0.90;;;;;;;33.64;27.24;99318.84;5031797;28;20099;-63
2022/08/09 12:43:35;;;;;;;4.47;1.30;;;;;;;32.91;30.15;99314.75;5031983;28;20468;-63
2022/08/09 12:46:19;;;;;;;1.45;0.90;;;;;;;33.84;27.25;99320.25;5031858;28;20050;-61
2022/08/09 12:49:06;;;;;;;2.15;1.20;;;;;;;32.75;28.53;99312.78;5031042;28;20045;-63
2022/08/09 12:51:56;;;;;;;2.55;1.10;;;;;;;34.39;27.45;99314.31;5030266;28;20053;-63
2022/08/09 12:54:54;;;;;;;1.80;0.80;;;;;;;34.23;27.74;99314.09;5030753;28;20041;-62
2022/08/09 12:57:42;;;;;;;1.20;0.90;;;;;;;32.27;29.05;99308.22;5041988;28;20058;-64
2022/08/09 13:00:33;;;;;;;1.73;0.95;;;;;;;32.69;28.25;99303.72;5030568;28;20389;-63
2022/08/09 13:03:26;;;;;;;2.20;1.20;;;;;;;33.61;27.11;99300.31;5031631;28;20084;-63
2022/08/09 13:06:26;;;;;;;3.28;1.02;;;;;;;34.82;25.17;99297.47;5032474;28;20069;-63
2022/08/09 13:09:11;;;;;;;2.53;1.00;;;;;;;34.45;26.73;99288.84;5038077;28;20056;-62